createdAt,value
2022-11-01T00:01:41.881Z,17.76
2022-11-01T00:04:09.928Z,17.77
2022-11-01T00:06:38.213Z,17.75
2022-11-01T00:09:07.027Z,17.78
2022-11-01T00:11:36.032Z,17.79
2022-11-01T00:14:03.908Z,17.79
2022-11-01T00:16:37.571Z,17.78
2022-11-01T00:19:05.267Z,17.77
2022-11-01T00:21:32.899Z,17.76
2022-11-01T00:24:00.590Z,17.75
2022-11-01T00:26:28.636Z,17.74
2022-11-01T00:28:57.665Z,17.70
2022-11-01T00:31:25.659Z,17.64
2022-11-01T00:33:53.291Z,17.61
2022-11-01T00:36:21.145Z,17.60
2022-11-01T00:38:51.141Z,17.57
2022-11-01T00:41:20.651Z,17.52
2022-11-01T00:43:48.300Z,17.45
2022-11-01T00:46:17.840Z,17.41
2022-11-01T00:48:45.492Z,17.38
2022-11-01T00:51:13.153Z,17.36
2022-11-01T00:53:40.922Z,17.33
2022-11-01T00:56:09.424Z,17.30
2022-11-01T00:58:37.082Z,17.29
2022-11-01T01:01:04.778Z,17.24
2022-11-01T01:03:33.862Z,17.22
2022-11-01T01:06:01.579Z,17.23
2022-11-01T01:08:29.328Z,17.23
2022-11-01T01:10:57.059Z,17.22
2022-11-01T01:13:24.758Z,17.20
2022-11-01T01:18:37.045Z,17.19
2022-11-01T01:21:06.531Z,17.20
2022-11-01T01:23:34.747Z,17.20
2022-11-01T01:26:06.931Z,17.20
2022-11-01T01:28:38.626Z,17.22
2022-11-01T01:31:08.805Z,17.23
2022-11-01T01:33:38.105Z,17.24
2022-11-01T01:36:08.019Z,17.25
2022-11-01T01:38:35.954Z,17.25
2022-11-01T01:41:17.962Z,17.27
2022-11-01T01:43:46.386Z,17.28
2022-11-01T01:46:14.324Z,17.27
2022-11-01T01:48:46.357Z,17.26
2022-11-01T01:51:17.544Z,17.24
2022-11-01T01:53:47.638Z,17.24
2022-11-01T01:56:19.570Z,17.27
2022-11-01T01:58:54.912Z,17.28
2022-11-01T02:01:22.987Z,17.27
2022-11-01T02:03:52.786Z,17.29
2022-11-01T02:08:53.612Z,17.32
2022-11-01T02:11:22.017Z,17.31
2022-11-01T02:13:50.809Z,17.33
2022-11-01T02:16:48.469Z,17.33
2022-11-01T02:19:56.855Z,17.33
2022-11-01T02:22:33.097Z,17.32
2022-11-01T02:25:22.563Z,17.30
2022-11-01T02:28:08.505Z,17.31
2022-11-01T02:30:44.397Z,17.30
2022-11-01T02:33:28.936Z,17.32
2022-11-01T02:36:03.415Z,17.27
2022-11-01T02:38:36.830Z,17.22
2022-11-01T02:41:12.026Z,17.19
2022-11-01T02:43:47.908Z,17.21
2022-11-01T02:46:35.301Z,17.19
2022-11-01T02:49:05.294Z,17.18
2022-11-01T02:51:34.618Z,17.18
2022-11-01T02:54:03.079Z,17.15
2022-11-01T02:56:32.377Z,17.12
2022-11-01T02:59:01.114Z,17.10
2022-11-01T03:01:34.561Z,17.09
2022-11-01T03:04:05.077Z,17.06
2022-11-01T03:06:37.736Z,17.04
2022-11-01T03:09:08.428Z,17.04
2022-11-01T03:11:46.467Z,17.02
2022-11-01T03:14:25.040Z,17.00
2022-11-01T03:17:00.257Z,16.98
2022-11-01T03:19:39.858Z,16.93
2022-11-01T03:22:12.002Z,16.90
2022-11-01T03:24:47.501Z,16.90
2022-11-01T03:27:21.271Z,16.90
2022-11-01T03:29:57.062Z,16.90
2022-11-01T03:32:29.514Z,16.90
2022-11-01T03:35:01.451Z,16.92
2022-11-01T03:37:31.778Z,16.94
2022-11-01T03:40:04.189Z,16.94
2022-11-01T03:42:32.390Z,16.91
2022-11-01T03:45:07.817Z,16.92
2022-11-01T03:47:35.831Z,16.92
2022-11-01T03:50:15.796Z,16.93
2022-11-01T03:52:43.920Z,16.93
2022-11-01T03:55:19.280Z,16.96
2022-11-01T03:57:48.038Z,17.00
2022-11-01T04:00:17.651Z,17.03
2022-11-01T04:02:45.662Z,17.04
2022-11-01T04:05:15.229Z,17.09
2022-11-01T04:07:43.898Z,17.15
2022-11-01T04:10:12.064Z,17.21
2022-11-01T04:12:40.096Z,17.27
2022-11-01T04:15:26.406Z,17.34
2022-11-01T04:18:23.033Z,17.36
2022-11-01T04:20:53.663Z,17.38
2022-11-01T04:23:21.677Z,17.39
2022-11-01T04:25:49.440Z,17.42
2022-11-01T04:28:17.236Z,17.49
2022-11-01T04:30:45.070Z,17.59
2022-11-01T04:33:13.045Z,17.58
2022-11-01T04:35:41.376Z,17.58
2022-11-01T04:38:12.356Z,17.61
2022-11-01T04:40:40.896Z,17.67
2022-11-01T04:43:08.805Z,17.67
2022-11-01T04:45:36.693Z,17.78
2022-11-01T04:48:06.625Z,17.73
2022-11-01T04:50:35.368Z,17.70
2022-11-01T04:53:03.539Z,17.72
2022-11-01T04:55:33.089Z,17.73
2022-11-01T04:58:00.860Z,17.75
2022-11-01T05:00:29.003Z,17.77
2022-11-01T05:03:03.266Z,17.73
2022-11-01T05:05:31.730Z,17.75
2022-11-01T05:08:03.500Z,17.75
2022-11-01T05:10:34.218Z,17.77
2022-11-01T05:13:02.999Z,17.81
2022-11-01T05:15:31.360Z,17.78
2022-11-01T05:17:59.258Z,17.80
2022-11-01T05:20:27.039Z,17.74
2022-11-01T05:22:59.462Z,17.68
2022-11-01T05:25:27.608Z,17.65
2022-11-01T05:28:01.649Z,17.64
2022-11-01T05:30:29.658Z,17.69
2022-11-01T05:32:58.958Z,17.69
2022-11-01T05:35:27.328Z,17.68
2022-11-01T05:37:55.807Z,17.62
2022-11-01T05:40:24.283Z,17.58
2022-11-01T05:42:52.246Z,17.53
2022-11-01T05:45:21.671Z,17.53
2022-11-01T05:47:49.468Z,17.49
2022-11-01T05:50:17.758Z,17.42
2022-11-01T05:52:45.461Z,17.39
2022-11-01T05:55:13.956Z,17.36
2022-11-01T05:57:41.904Z,17.29
2022-11-01T06:00:10.795Z,17.31
2022-11-01T06:02:40.174Z,17.22
2022-11-01T06:05:08.871Z,17.19
2022-11-01T06:07:37.477Z,17.17
2022-11-01T06:10:06.426Z,17.12
2022-11-01T06:12:34.263Z,17.05
2022-11-01T06:15:02.059Z,16.98
2022-11-01T06:17:29.829Z,16.90
2022-11-01T06:19:59.062Z,16.80
2022-11-01T06:22:26.829Z,16.77
2022-11-01T06:24:54.600Z,16.71
2022-11-01T06:27:22.423Z,16.68
2022-11-01T06:29:50.173Z,16.63
2022-11-01T06:32:17.938Z,16.59
2022-11-01T06:34:45.737Z,16.53
2022-11-01T06:37:15.052Z,16.51
2022-11-01T06:39:42.848Z,16.42
2022-11-01T06:42:11.188Z,16.30
2022-11-01T06:44:38.952Z,16.29
2022-11-01T06:47:06.692Z,16.23
2022-11-01T06:49:34.734Z,16.17
2022-11-01T06:52:03.253Z,16.08
2022-11-01T06:54:32.688Z,16.02
2022-11-01T06:57:00.504Z,16.00
2022-11-01T06:59:28.276Z,15.96
2022-11-01T07:01:56.110Z,15.90
2022-11-01T07:04:24.147Z,15.86
2022-11-01T07:06:52.054Z,15.81
2022-11-01T07:09:19.878Z,15.79
2022-11-01T07:11:49.174Z,15.75
2022-11-01T07:14:16.905Z,15.68
2022-11-01T07:16:44.648Z,15.66
2022-11-01T07:19:12.487Z,15.67
2022-11-01T07:21:40.349Z,15.68
2022-11-01T07:24:08.240Z,15.68
2022-11-01T07:26:36.057Z,15.64
2022-11-01T07:29:05.622Z,15.60
2022-11-01T07:31:34.481Z,15.63
2022-11-01T07:34:02.405Z,15.61
2022-11-01T07:36:30.622Z,15.66
2022-11-01T07:38:58.386Z,15.62
2022-11-01T07:41:26.823Z,15.57
2022-11-01T07:43:55.064Z,15.65
2022-11-01T07:46:24.340Z,15.65
2022-11-01T07:48:52.130Z,15.65
2022-11-01T07:51:19.886Z,15.67
2022-11-01T07:53:48.256Z,15.71
2022-11-01T08:04:26.316Z,15.68
2022-11-01T08:10:43.953Z,15.79
2022-11-01T08:13:17.833Z,15.81
2022-11-01T08:15:46.049Z,15.80
2022-11-01T08:18:14.228Z,15.79
2022-11-01T08:20:42.455Z,15.80
2022-11-01T08:23:10.941Z,15.79
2022-11-01T08:25:40.682Z,15.84
2022-11-01T08:28:10.883Z,15.87
2022-11-01T08:30:40.356Z,15.85
2022-11-01T08:33:14.169Z,15.81
2022-11-01T08:35:50.054Z,15.79
2022-11-01T08:38:18.555Z,15.80
2022-11-01T08:40:48.024Z,15.82
2022-11-01T08:43:15.795Z,15.80
2022-11-01T08:45:43.627Z,15.75
2022-11-01T08:48:11.689Z,15.77
2022-11-01T08:50:39.867Z,15.79
2022-11-01T08:53:09.197Z,15.83
2022-11-01T08:55:38.373Z,15.85
2022-11-01T08:58:09.516Z,15.88
2022-11-01T09:00:37.412Z,15.84
2022-11-01T09:03:05.521Z,15.86
2022-11-01T09:05:33.404Z,15.88
2022-11-01T09:08:02.674Z,15.90
2022-11-01T09:10:32.167Z,15.93
2022-11-01T09:13:00.749Z,15.93
2022-11-01T09:15:30.608Z,15.94
2022-11-01T09:17:58.498Z,15.85
2022-11-01T09:20:27.560Z,15.93
2022-11-01T09:22:55.491Z,15.91
2022-11-01T09:25:23.450Z,15.89
2022-11-01T09:27:51.258Z,15.88
2022-11-01T09:30:19.199Z,15.95
2022-11-01T09:32:48.302Z,16.05
2022-11-01T09:35:17.560Z,16.03
2022-11-01T09:37:45.770Z,16.01
2022-11-01T09:40:22.466Z,16.06
2022-11-01T09:42:50.524Z,16.17
2022-11-01T09:45:22.032Z,16.15
2022-11-01T09:47:54.815Z,16.23
2022-11-01T09:50:26.277Z,16.30
2022-11-01T09:52:56.565Z,16.24
2022-11-01T09:55:40.686Z,16.39
2022-11-01T09:58:17.631Z,16.38
2022-11-01T10:00:53.079Z,16.35
2022-11-01T10:03:42.681Z,16.32
2022-11-01T10:06:17.917Z,16.37
2022-11-01T10:08:58.460Z,16.36
2022-11-01T10:11:48.965Z,16.48
2022-11-01T10:14:35.804Z,16.49
2022-11-01T10:17:13.597Z,16.50
2022-11-01T10:19:46.278Z,16.57
2022-11-01T10:22:20.365Z,16.60
2022-11-01T10:24:54.274Z,16.57
2022-11-01T10:27:34.529Z,16.61
2022-11-01T10:30:08.685Z,16.60
2022-11-01T10:32:41.440Z,16.56
2022-11-01T10:35:16.978Z,16.58
2022-11-01T10:38:04.203Z,16.62
2022-11-01T10:40:47.121Z,16.69
2022-11-01T10:43:18.695Z,16.74
2022-11-01T10:45:49.223Z,16.83
2022-11-01T10:48:29.493Z,16.90
2022-11-01T10:51:01.268Z,16.93
2022-11-01T10:53:30.673Z,16.99
2022-11-01T10:56:02.281Z,17.01
2022-11-01T10:58:39.077Z,17.04
2022-11-01T11:01:11.021Z,17.14
2022-11-01T11:03:41.123Z,17.12
2022-11-01T11:06:15.527Z,17.11
2022-11-01T11:08:45.965Z,17.06
2022-11-01T11:11:16.466Z,17.04
2022-11-01T11:13:48.108Z,17.03
2022-11-01T11:16:24.862Z,17.07
2022-11-01T11:19:03.314Z,17.14
2022-11-01T11:21:35.956Z,17.17
2022-11-01T11:24:04.514Z,17.18
2022-11-01T11:26:39.237Z,17.19
2022-11-01T11:29:07.381Z,17.25
2022-11-01T11:31:36.130Z,17.28
2022-11-01T11:34:14.161Z,17.28
2022-11-01T11:36:47.844Z,17.25
2022-11-01T11:39:33.238Z,17.28
2022-11-01T11:42:17.656Z,17.32
2022-11-01T11:44:50.591Z,17.29
2022-11-01T11:47:24.640Z,17.26
2022-11-01T11:49:54.146Z,17.27
2022-11-01T11:52:28.763Z,17.33
2022-11-01T11:54:57.397Z,17.28
2022-11-01T11:57:27.259Z,17.27
2022-11-01T11:59:57.210Z,17.21
2022-11-01T12:02:28.562Z,17.20
2022-11-01T12:05:11.372Z,17.26
2022-11-01T12:07:48.937Z,17.33
2022-11-01T12:10:32.598Z,17.37
2022-11-01T12:13:01.738Z,17.42
2022-11-01T12:15:36.875Z,17.44
2022-11-01T12:18:19.750Z,17.43
2022-11-01T12:21:00.977Z,17.39
2022-11-01T12:23:35.109Z,17.37
2022-11-01T12:26:20.747Z,17.34
2022-11-01T12:28:55.849Z,17.39
2022-11-01T12:31:32.093Z,17.37
2022-11-01T12:34:05.360Z,17.38
2022-11-01T12:36:43.775Z,17.41
2022-11-01T12:39:47.140Z,17.37
2022-11-01T12:42:22.697Z,17.39
2022-11-01T12:44:55.682Z,17.42
2022-11-01T12:47:29.053Z,17.39
2022-11-01T12:50:02.606Z,17.42
2022-11-01T12:52:38.015Z,17.48
2022-11-01T12:55:20.882Z,17.53
2022-11-01T12:57:54.384Z,17.54
2022-11-01T13:00:23.213Z,17.55
2022-11-01T13:03:13.416Z,17.53
2022-11-01T13:05:52.028Z,17.51
2022-11-01T13:08:29.353Z,17.55
2022-11-01T13:11:07.448Z,17.59
2022-11-01T13:13:42.366Z,17.62
2022-11-01T13:16:17.270Z,17.60
2022-11-01T13:18:53.428Z,17.57
2022-11-01T13:21:35.264Z,17.57
2022-11-01T13:24:12.266Z,17.55
2022-11-01T13:26:47.577Z,17.55
2022-11-01T13:29:19.753Z,17.54
2022-11-01T13:32:02.181Z,17.52
2022-11-01T13:34:40.503Z,17.52
2022-11-01T13:37:16.023Z,17.54
2022-11-01T13:39:55.288Z,17.54
2022-11-01T13:42:26.698Z,17.56
2022-11-01T13:45:10.424Z,17.53
2022-11-01T13:47:49.562Z,17.60
2022-11-01T13:50:37.219Z,17.60
2022-11-01T13:53:13.516Z,17.62
2022-11-01T13:55:49.486Z,17.68
2022-11-01T13:58:20.992Z,17.71
2022-11-01T14:00:51.407Z,17.70
2022-11-01T14:03:22.720Z,17.74
2022-11-01T14:06:26.661Z,17.75
2022-11-01T14:09:30.819Z,17.74
2022-11-01T14:12:11.417Z,17.65
2022-11-01T14:14:53.868Z,17.62
2022-11-01T14:18:06.660Z,17.58
2022-11-01T14:20:52.543Z,17.51
2022-11-01T14:24:06.471Z,17.52
2022-11-01T14:26:40.015Z,17.50
2022-11-01T14:29:13.119Z,17.46
2022-11-01T14:31:45.839Z,17.37
2022-11-01T14:34:29.040Z,17.34
2022-11-01T14:37:02.202Z,17.35
2022-11-01T14:39:38.482Z,17.39
2022-11-01T14:42:10.726Z,17.38
2022-11-01T14:44:40.801Z,17.34
2022-11-01T14:47:23.909Z,17.32
2022-11-01T14:49:57.041Z,17.28
2022-11-01T14:52:32.317Z,17.25
2022-11-01T14:55:07.591Z,17.23
2022-11-01T14:57:36.314Z,17.21
2022-11-01T15:00:26.466Z,17.20
2022-11-01T15:02:56.800Z,17.15
2022-11-01T15:05:25.061Z,17.12
2022-11-01T15:07:56.143Z,17.14
2022-11-01T15:10:24.407Z,17.09
2022-11-01T15:12:55.505Z,17.11
2022-11-01T15:15:26.091Z,17.07
2022-11-01T15:17:58.827Z,17.03
2022-11-01T15:20:29.860Z,16.95
2022-11-01T15:22:58.864Z,16.91
2022-11-01T15:25:27.826Z,16.92
2022-11-01T15:27:58.180Z,16.93
2022-11-01T15:30:28.164Z,16.86
2022-11-01T15:33:23.110Z,16.78
2022-11-01T15:35:56.121Z,16.76
2022-11-01T15:38:24.211Z,16.73
2022-11-01T15:40:53.093Z,16.75
2022-11-01T15:43:23.384Z,16.77
2022-11-01T15:45:56.223Z,16.69
2022-11-01T15:48:28.426Z,16.70
2022-11-01T15:51:02.157Z,16.69
2022-11-01T15:53:33.148Z,16.60
2022-11-01T15:56:05.540Z,16.56
2022-11-01T15:58:34.800Z,16.49
2022-11-01T16:01:10.055Z,16.41
2022-11-01T16:03:45.059Z,16.44
2022-11-01T16:06:20.842Z,16.43
2022-11-01T16:08:52.615Z,16.42
2022-11-01T16:11:23.030Z,16.43
2022-11-01T16:13:54.168Z,16.43
2022-11-01T16:16:22.076Z,16.39
2022-11-01T16:18:51.323Z,16.34
2022-11-01T16:21:34.069Z,16.29
2022-11-01T16:24:11.471Z,16.27
2022-11-01T16:26:53.827Z,16.26
2022-11-01T16:29:39.651Z,16.26
2022-11-01T16:32:10.141Z,16.24
2022-11-01T16:34:39.992Z,16.18
2022-11-01T16:37:14.899Z,16.14
2022-11-01T16:39:42.749Z,16.16
2022-11-01T16:42:10.816Z,16.11
2022-11-01T16:44:38.718Z,16.09
2022-11-01T16:47:06.677Z,16.07
2022-11-01T16:49:34.407Z,16.04
2022-11-01T16:52:03.632Z,16.01
2022-11-01T16:54:31.429Z,15.99
2022-11-01T16:56:59.417Z,16.02
2022-11-01T16:59:32.823Z,16.00
2022-11-01T17:02:02.296Z,15.99
2022-11-01T17:04:30.380Z,15.97
2022-11-01T17:06:59.123Z,15.94
2022-11-01T17:09:33.496Z,15.91
2022-11-01T17:12:01.674Z,15.89
2022-11-01T17:14:29.862Z,15.91
2022-11-01T17:16:57.809Z,15.86
2022-11-01T17:19:29.812Z,15.84
2022-11-01T17:21:58.245Z,15.83
2022-11-01T17:24:27.358Z,15.82
2022-11-01T17:27:00.659Z,15.83
2022-11-01T17:29:30.281Z,15.83
2022-11-01T17:31:58.292Z,15.81
2022-11-01T17:34:28.818Z,15.77
2022-11-01T17:36:58.392Z,15.72
2022-11-01T17:39:28.676Z,15.71
2022-11-01T17:41:58.301Z,15.66
2022-11-01T17:44:26.048Z,15.64
2022-11-01T17:46:53.793Z,15.61
2022-11-01T17:49:24.242Z,15.62
2022-11-01T17:51:55.391Z,15.58
2022-11-01T17:54:23.315Z,15.59
2022-11-01T17:56:51.508Z,15.58
2022-11-01T17:59:20.842Z,15.57
2022-11-01T18:01:48.729Z,15.51
2022-11-01T18:04:17.034Z,15.54
2022-11-01T18:06:45.103Z,15.50
2022-11-01T18:09:21.053Z,15.46
2022-11-01T18:11:55.873Z,15.41
2022-11-01T18:14:42.505Z,15.39
2022-11-01T18:17:25.876Z,15.33
2022-11-01T18:19:57.924Z,15.33
2022-11-01T18:22:38.003Z,15.38
2022-11-01T18:25:21.950Z,15.37
2022-11-01T18:27:50.825Z,15.34
2022-11-01T18:30:21.135Z,15.31
2022-11-01T18:32:53.560Z,15.27
2022-11-01T18:35:30.665Z,15.22
2022-11-01T18:38:17.983Z,15.19
2022-11-01T18:40:58.327Z,15.13
2022-11-01T18:43:39.748Z,15.14
2022-11-01T18:46:25.235Z,15.11
2022-11-01T18:48:59.814Z,15.13
2022-11-01T18:51:31.170Z,15.10
2022-11-01T18:54:20.880Z,15.08
2022-11-01T18:56:51.215Z,15.03
2022-11-01T18:59:31.132Z,14.99
2022-11-01T19:02:04.616Z,14.97
2022-11-01T19:04:35.779Z,14.94
2022-11-01T19:07:12.001Z,14.93
2022-11-01T19:09:44.048Z,14.88
2022-11-01T19:12:26.924Z,14.88
2022-11-01T19:14:59.594Z,14.86
2022-11-01T19:17:31.116Z,14.84
2022-11-01T19:19:59.910Z,14.82
2022-11-01T19:22:38.423Z,14.77
2022-11-01T19:25:20.903Z,14.76
2022-11-01T19:27:50.319Z,14.75
2022-11-01T19:30:23.194Z,14.74
2022-11-01T19:32:54.691Z,14.75
2022-11-01T19:35:24.046Z,14.73
2022-11-01T19:37:56.465Z,14.74
2022-11-01T19:40:28.251Z,14.70
2022-11-01T19:42:56.598Z,14.67
2022-11-01T19:45:32.020Z,14.65
2022-11-01T19:48:03.022Z,14.63
2022-11-01T19:50:39.408Z,14.60
2022-11-01T19:53:20.294Z,14.55
2022-11-01T19:55:52.030Z,14.50
2022-11-01T19:58:40.930Z,14.47
2022-11-01T20:01:41.009Z,14.44
2022-11-01T20:04:18.818Z,14.42
2022-11-01T20:06:50.595Z,14.40
2022-11-01T20:09:22.532Z,14.46
2022-11-01T20:11:50.787Z,14.49
2022-11-01T20:14:18.689Z,14.56
2022-11-01T20:16:47.371Z,14.62
2022-11-01T20:19:17.822Z,14.66
2022-11-01T20:21:46.116Z,14.68
2022-11-01T20:24:14.409Z,14.70
2022-11-01T20:26:42.682Z,14.69
2022-11-01T20:29:10.635Z,14.67
2022-11-01T20:31:38.594Z,14.64
2022-11-01T20:34:07.066Z,14.61
2022-11-01T20:36:36.811Z,14.59
2022-11-01T20:39:04.840Z,14.61
2022-11-01T20:41:32.978Z,14.59
2022-11-01T20:44:01.108Z,14.56
2022-11-01T20:46:28.882Z,14.53
2022-11-01T20:48:56.683Z,14.49
2022-11-01T20:51:24.472Z,14.42
2022-11-01T20:53:53.645Z,14.36
2022-11-01T20:56:22.817Z,14.27
2022-11-01T20:58:50.692Z,14.25
2022-11-01T21:01:22.089Z,14.21
2022-11-01T21:03:50.190Z,14.18
2022-11-01T21:06:19.221Z,14.13
2022-11-01T21:08:48.108Z,14.13
2022-11-01T21:11:22.960Z,14.13
2022-11-01T21:13:52.532Z,14.13
2022-11-01T21:16:26.642Z,14.12
2022-11-01T21:19:01.030Z,14.03
2022-11-01T21:21:33.367Z,14.05
2022-11-01T21:24:07.786Z,14.04
2022-11-01T21:26:40.058Z,14.07
2022-11-01T21:29:20.847Z,14.07
2022-11-01T21:31:48.530Z,14.11
2022-11-01T21:34:25.505Z,14.13
2022-11-01T21:36:53.571Z,14.21
2022-11-01T21:39:25.395Z,14.22
2022-11-01T21:41:56.886Z,14.24
2022-11-01T21:44:30.171Z,14.24
2022-11-01T21:47:02.441Z,14.25
2022-11-01T21:49:31.831Z,14.26
2022-11-01T21:52:01.398Z,14.28
2022-11-01T21:54:30.638Z,14.30
2022-11-01T21:56:59.710Z,14.31
2022-11-01T21:59:28.598Z,14.34
2022-11-01T22:01:57.415Z,14.37
2022-11-01T22:04:28.795Z,14.38
2022-11-01T22:06:57.063Z,14.38
2022-11-01T22:09:24.862Z,14.39
2022-11-01T22:11:52.832Z,14.44
2022-11-01T22:14:21.971Z,14.44
2022-11-01T22:16:49.761Z,14.46
2022-11-01T22:19:17.470Z,14.46
2022-11-01T22:24:18.001Z,14.44
2022-11-01T22:26:45.908Z,14.46
2022-11-01T22:29:13.627Z,14.47
2022-11-01T22:31:43.138Z,14.47
2022-11-01T22:34:10.832Z,14.50
2022-11-01T22:36:41.549Z,14.49
2022-11-01T22:39:16.737Z,14.50
2022-11-01T22:41:44.773Z,14.48
2022-11-01T22:44:14.879Z,14.45
2022-11-01T22:46:52.362Z,14.46
2022-11-01T22:49:25.545Z,14.45
2022-11-01T22:51:57.196Z,14.46
2022-11-01T22:54:30.564Z,14.46
2022-11-01T22:57:02.149Z,14.46
2022-11-01T22:59:33.511Z,14.44
2022-11-01T23:02:22.925Z,14.36
2022-11-01T23:04:50.783Z,14.33
2022-11-01T23:07:28.704Z,14.29
2022-11-01T23:10:05.074Z,14.29
2022-11-01T23:12:52.179Z,14.27
2022-11-01T23:15:27.624Z,14.32
2022-11-01T23:18:03.055Z,14.32
2022-11-01T23:20:30.888Z,14.25
2022-11-01T23:23:00.067Z,14.25
2022-11-01T23:25:27.932Z,14.26
2022-11-01T23:27:55.865Z,14.25
2022-11-01T23:30:23.571Z,14.25
2022-11-01T23:32:51.759Z,14.27
2022-11-01T23:35:23.017Z,14.26
2022-11-01T23:37:52.219Z,14.26
2022-11-01T23:40:22.594Z,14.29
2022-11-01T23:42:50.694Z,14.29
2022-11-01T23:45:28.383Z,14.30
2022-11-01T23:47:56.717Z,14.32
2022-11-01T23:50:30.296Z,14.32
2022-11-01T23:53:00.356Z,14.35
2022-11-01T23:55:30.762Z,14.34
2022-11-01T23:58:01.011Z,14.34
